sensor_id;sensor_type;location;lat;lon;timestamp;temperature;humidity
43671;DHT22;29267;50.906;7.248;2024-02-21T00:01:35;8.10;99.90
43671;DHT22;29267;50.906;7.248;2024-02-21T00:04:01;8.10;99.90
43671;DHT22;29267;50.906;7.248;2024-02-21T00:06:26;8.10;99.90
43671;DHT22;29267;50.906;7.248;2024-02-21T00:08:52;8.10;99.90
43671;DHT22;29267;50.906;7.248;2024-02-21T00:11:18;8.10;99.90
43671;DHT22;29267;50.906;7.248;2024-02-21T00:13:43;8.10;99.90
43671;DHT22;29267;50.906;7.248;2024-02-21T00:16:09;8.10;99.90
43671;DHT22;29267;50.906;7.248;2024-02-21T00:18:36;8.10;99.90
43671;DHT22;29267;50.906;7.248;2024-02-21T00:21:01;8.10;99.90
43671;DHT22;29267;50.906;7.248;2024-02-21T00:23:27;8.10;99.90
43671;DHT22;29267;50.906;7.248;2024-02-21T00:25:54;8.10;99.90
43671;DHT22;29267;50.906;7.248;2024-02-21T00:28:19;8.10;99.90
43671;DHT22;29267;50.906;7.248;2024-02-21T00:30:45;8.10;99.90
43671;DHT22;29267;50.906;7.248;2024-02-21T00:33:13;8.10;99.90
43671;DHT22;29267;50.906;7.248;2024-02-21T00:35:38;8.10;99.90
43671;DHT22;29267;50.906;7.248;2024-02-21T00:38:04;8.10;99.90
43671;DHT22;29267;50.906;7.248;2024-02-21T00:40:30;8.10;99.90
43671;DHT22;29267;50.906;7.248;2024-02-21T00:42:55;8.10;99.90
43671;DHT22;29267;50.906;7.248;2024-02-21T00:45:21;8.10;99.90
43671;DHT22;29267;50.906;7.248;2024-02-21T00:47:46;8.10;99.90
43671;DHT22;29267;50.906;7.248;2024-02-21T00:50:12;8.10;99.90
43671;DHT22;29267;50.906;7.248;2024-02-21T00:52:38;8.10;99.90
43671;DHT22;29267;50.906;7.248;2024-02-21T00:55:04;8.10;99.90
43671;DHT22;29267;50.906;7.248;2024-02-21T00:57:30;8.10;99.90
43671;DHT22;29267;50.906;7.248;2024-02-21T00:59:55;8.10;99.90
43671;DHT22;29267;50.906;7.248;2024-02-21T01:02:21;8.10;99.90
43671;DHT22;29267;50.906;7.248;2024-02-21T01:04:46;8.10;99.90
43671;DHT22;29267;50.906;7.248;2024-02-21T01:07:12;8.00;99.90
43671;DHT22;29267;50.906;7.248;2024-02-21T01:09:38;8.10;99.90
43671;DHT22;29267;50.906;7.248;2024-02-21T01:12:03;8.10;99.90
43671;DHT22;29267;50.906;7.248;2024-02-21T01:14:29;8.00;99.90
43671;DHT22;29267;50.906;7.248;2024-02-21T01:16:54;8.10;99.90
43671;DHT22;29267;50.906;7.248;2024-02-21T01:19:20;8.10;99.90
43671;DHT22;29267;50.906;7.248;2024-02-21T01:21:46;8.10;99.90
43671;DHT22;29267;50.906;7.248;2024-02-21T01:24:11;8.00;99.90
43671;DHT22;29267;50.906;7.248;2024-02-21T01:26:37;8.00;99.90
43671;DHT22;29267;50.906;7.248;2024-02-21T01:29:03;8.00;99.90
43671;DHT22;29267;50.906;7.248;2024-02-21T01:31:29;8.00;99.90
43671;DHT22;29267;50.906;7.248;2024-02-21T01:33:55;8.00;99.90
43671;DHT22;29267;50.906;7.248;2024-02-21T01:36:21;8.00;99.90
43671;DHT22;29267;50.906;7.248;2024-02-21T01:38:46;8.00;99.90
43671;DHT22;29267;50.906;7.248;2024-02-21T01:41:12;8.00;99.90
43671;DHT22;29267;50.906;7.248;2024-02-21T01:43:37;8.00;99.90
43671;DHT22;29267;50.906;7.248;2024-02-21T01:46:03;8.00;99.90
43671;DHT22;29267;50.906;7.248;2024-02-21T01:48:29;8.00;99.90
43671;DHT22;29267;50.906;7.248;2024-02-21T01:50:56;7.90;99.90
43671;DHT22;29267;50.906;7.248;2024-02-21T01:53:33;7.90;99.90
43671;DHT22;29267;50.906;7.248;2024-02-21T01:56:00;7.90;99.90
43671;DHT22;29267;50.906;7.248;2024-02-21T01:58:27;7.90;99.90
43671;DHT22;29267;50.906;7.248;2024-02-21T02:00:56;7.90;99.90
43671;DHT22;29267;50.906;7.248;2024-02-21T02:03:22;7.90;99.90
43671;DHT22;29267;50.906;7.248;2024-02-21T02:05:49;7.90;99.90
43671;DHT22;29267;50.906;7.248;2024-02-21T02:08:19;7.90;99.90
43671;DHT22;29267;50.906;7.248;2024-02-21T02:10:45;7.90;99.90
43671;DHT22;29267;50.906;7.248;2024-02-21T02:13:11;7.90;99.90
43671;DHT22;29267;50.906;7.248;2024-02-21T02:18:06;7.90;99.90
43671;DHT22;29267;50.906;7.248;2024-02-21T02:20:32;7.90;99.90
43671;DHT22;29267;50.906;7.248;2024-02-21T02:22:59;7.90;99.90
43671;DHT22;29267;50.906;7.248;2024-02-21T02:25:26;7.90;99.90
43671;DHT22;29267;50.906;7.248;2024-02-21T02:27:51;7.90;99.90
43671;DHT22;29267;50.906;7.248;2024-02-21T02:30:17;7.80;99.90
43671;DHT22;29267;50.906;7.248;2024-02-21T02:32:46;7.80;99.90
43671;DHT22;29267;50.906;7.248;2024-02-21T02:35:12;7.90;99.90
43671;DHT22;29267;50.906;7.248;2024-02-21T02:37:37;7.80;99.90
43671;DHT22;29267;50.906;7.248;2024-02-21T02:40:07;7.80;99.90
43671;DHT22;29267;50.906;7.248;2024-02-21T02:42:33;7.80;99.90
43671;DHT22;29267;50.906;7.248;2024-02-21T02:44:58;7.80;99.90
43671;DHT22;29267;50.906;7.248;2024-02-21T02:47:24;7.80;99.90
43671;DHT22;29267;50.906;7.248;2024-02-21T02:49:49;7.90;99.90
43671;DHT22;29267;50.906;7.248;2024-02-21T02:52:17;7.90;99.90
43671;DHT22;29267;50.906;7.248;2024-02-21T02:54:43;7.90;99.90
43671;DHT22;29267;50.906;7.248;2024-02-21T02:57:09;7.90;99.90
43671;DHT22;29267;50.906;7.248;2024-02-21T02:59:35;7.80;99.90
43671;DHT22;29267;50.906;7.248;2024-02-21T03:02:01;7.90;99.90
43671;DHT22;29267;50.906;7.248;2024-02-21T03:04:26;7.80;99.90
43671;DHT22;29267;50.906;7.248;2024-02-21T03:06:52;7.80;99.90
43671;DHT22;29267;50.906;7.248;2024-02-21T03:09:18;7.80;99.90
43671;DHT22;29267;50.906;7.248;2024-02-21T03:11:44;7.80;99.90
43671;DHT22;29267;50.906;7.248;2024-02-21T03:14:10;7.80;99.90
43671;DHT22;29267;50.906;7.248;2024-02-21T03:16:36;7.80;99.90
43671;DHT22;29267;50.906;7.248;2024-02-21T03:19:01;7.80;99.90
43671;DHT22;29267;50.906;7.248;2024-02-21T03:21:27;7.80;99.90
43671;DHT22;29267;50.906;7.248;2024-02-21T03:23:52;7.80;99.90
43671;DHT22;29267;50.906;7.248;2024-02-21T03:26:18;7.80;99.90
43671;DHT22;29267;50.906;7.248;2024-02-21T03:28:44;7.80;99.90
43671;DHT22;29267;50.906;7.248;2024-02-21T03:31:11;7.80;99.90
43671;DHT22;29267;50.906;7.248;2024-02-21T03:33:39;7.80;99.90
43671;DHT22;29267;50.906;7.248;2024-02-21T03:36:05;7.80;99.90
43671;DHT22;29267;50.906;7.248;2024-02-21T03:38:30;7.80;99.90
43671;DHT22;29267;50.906;7.248;2024-02-21T03:40:56;7.80;99.90
43671;DHT22;29267;50.906;7.248;2024-02-21T03:43:21;7.80;99.90
43671;DHT22;29267;50.906;7.248;2024-02-21T03:45:47;7.80;99.90
43671;DHT22;29267;50.906;7.248;2024-02-21T03:48:13;7.80;99.90
43671;DHT22;29267;50.906;7.248;2024-02-21T03:50:38;7.80;99.90
43671;DHT22;29267;50.906;7.248;2024-02-21T03:53:04;7.80;99.90
43671;DHT22;29267;50.906;7.248;2024-02-21T03:55:29;7.80;99.90
43671;DHT22;29267;50.906;7.248;2024-02-21T03:57:55;7.80;99.90
43671;DHT22;29267;50.906;7.248;2024-02-21T04:00:20;7.80;99.90
43671;DHT22;29267;50.906;7.248;2024-02-21T04:02:46;7.80;99.90
43671;DHT22;29267;50.906;7.248;2024-02-21T04:05:14;7.80;99.90
43671;DHT22;29267;50.906;7.248;2024-02-21T04:07:40;7.80;99.90
43671;DHT22;29267;50.906;7.248;2024-02-21T04:10:06;7.80;99.90
43671;DHT22;29267;50.906;7.248;2024-02-21T04:12:32;7.80;99.90
43671;DHT22;29267;50.906;7.248;2024-02-21T04:14:57;7.80;99.90
43671;DHT22;29267;50.906;7.248;2024-02-21T04:17:23;7.80;99.90
43671;DHT22;29267;50.906;7.248;2024-02-21T04:19:49;7.80;99.90
43671;DHT22;29267;50.906;7.248;2024-02-21T04:22:14;7.80;99.90
43671;DHT22;29267;50.906;7.248;2024-02-21T04:24:40;7.80;99.90
43671;DHT22;29267;50.906;7.248;2024-02-21T04:27:05;7.80;99.90
43671;DHT22;29267;50.906;7.248;2024-02-21T04:29:31;7.80;99.90
43671;DHT22;29267;50.906;7.248;2024-02-21T04:31:56;7.80;99.90
43671;DHT22;29267;50.906;7.248;2024-02-21T04:34:22;7.70;99.90
43671;DHT22;29267;50.906;7.248;2024-02-21T04:36:47;7.80;99.90
43671;DHT22;29267;50.906;7.248;2024-02-21T04:39:13;7.70;99.90
43671;DHT22;29267;50.906;7.248;2024-02-21T04:41:38;7.80;99.90
43671;DHT22;29267;50.906;7.248;2024-02-21T04:44:04;7.80;99.90
43671;DHT22;29267;50.906;7.248;2024-02-21T04:46:30;7.70;99.90
43671;DHT22;29267;50.906;7.248;2024-02-21T04:48:55;7.70;99.90
43671;DHT22;29267;50.906;7.248;2024-02-21T04:51:21;7.80;99.90
43671;DHT22;29267;50.906;7.248;2024-02-21T04:53:47;7.80;99.90
43671;DHT22;29267;50.906;7.248;2024-02-21T04:56:12;7.80;99.90
43671;DHT22;29267;50.906;7.248;2024-02-21T04:58:39;7.70;99.90
43671;DHT22;29267;50.906;7.248;2024-02-21T05:01:05;7.70;99.90
43671;DHT22;29267;50.906;7.248;2024-02-21T05:03:30;7.70;99.90
43671;DHT22;29267;50.906;7.248;2024-02-21T05:05:56;7.70;99.90
43671;DHT22;29267;50.906;7.248;2024-02-21T05:08:21;7.80;99.90
43671;DHT22;29267;50.906;7.248;2024-02-21T05:10:47;7.70;99.90
43671;DHT22;29267;50.906;7.248;2024-02-21T05:13:12;7.70;99.90
43671;DHT22;29267;50.906;7.248;2024-02-21T05:15:38;7.70;99.90
43671;DHT22;29267;50.906;7.248;2024-02-21T05:18:03;7.70;99.90
43671;DHT22;29267;50.906;7.248;2024-02-21T05:20:29;7.70;99.90
43671;DHT22;29267;50.906;7.248;2024-02-21T05:22:55;7.70;99.90
43671;DHT22;29267;50.906;7.248;2024-02-21T05:25:20;7.70;99.90
43671;DHT22;29267;50.906;7.248;2024-02-21T05:27:46;7.70;99.90
43671;DHT22;29267;50.906;7.248;2024-02-21T05:30:12;7.70;99.90
43671;DHT22;29267;50.906;7.248;2024-02-21T05:32:37;7.70;99.90
43671;DHT22;29267;50.906;7.248;2024-02-21T05:35:03;7.70;99.90
43671;DHT22;29267;50.906;7.248;2024-02-21T05:37:29;7.70;99.90
43671;DHT22;29267;50.906;7.248;2024-02-21T05:39:54;7.70;99.90
43671;DHT22;29267;50.906;7.248;2024-02-21T05:42:20;7.70;99.90
43671;DHT22;29267;50.906;7.248;2024-02-21T05:44:45;7.70;99.90
43671;DHT22;29267;50.906;7.248;2024-02-21T05:47:11;7.70;99.90
43671;DHT22;29267;50.906;7.248;2024-02-21T05:49:39;7.70;99.90
43671;DHT22;29267;50.906;7.248;2024-02-21T05:52:05;7.70;99.90
43671;DHT22;29267;50.906;7.248;2024-02-21T05:54:31;7.70;99.90
43671;DHT22;29267;50.906;7.248;2024-02-21T05:56:56;7.70;99.90
43671;DHT22;29267;50.906;7.248;2024-02-21T05:59:22;7.70;99.90
43671;DHT22;29267;50.906;7.248;2024-02-21T06:01:58;7.70;99.90
43671;DHT22;29267;50.906;7.248;2024-02-21T06:04:23;7.60;99.90
43671;DHT22;29267;50.906;7.248;2024-02-21T06:06:49;7.70;99.90
43671;DHT22;29267;50.906;7.248;2024-02-21T06:09:15;7.70;99.90
43671;DHT22;29267;50.906;7.248;2024-02-21T06:11:40;7.70;99.90
43671;DHT22;29267;50.906;7.248;2024-02-21T06:14:06;7.70;99.90
43671;DHT22;29267;50.906;7.248;2024-02-21T06:16:31;7.70;99.90
43671;DHT22;29267;50.906;7.248;2024-02-21T06:18:57;7.70;99.90
43671;DHT22;29267;50.906;7.248;2024-02-21T06:21:22;7.70;99.90
43671;DHT22;29267;50.906;7.248;2024-02-21T06:23:48;7.70;99.90
43671;DHT22;29267;50.906;7.248;2024-02-21T06:26:13;7.70;99.90
43671;DHT22;29267;50.906;7.248;2024-02-21T06:28:39;7.70;99.90
43671;DHT22;29267;50.906;7.248;2024-02-21T06:31:04;7.70;99.90
43671;DHT22;29267;50.906;7.248;2024-02-21T06:33:30;7.70;99.90
43671;DHT22;29267;50.906;7.248;2024-02-21T06:35:55;7.70;99.90
43671;DHT22;29267;50.906;7.248;2024-02-21T06:38:22;7.70;99.90
43671;DHT22;29267;50.906;7.248;2024-02-21T06:40:47;7.70;99.90
43671;DHT22;29267;50.906;7.248;2024-02-21T06:43:17;7.70;99.90
43671;DHT22;29267;50.906;7.248;2024-02-21T06:45:43;7.70;99.90
43671;DHT22;29267;50.906;7.248;2024-02-21T06:48:13;7.70;99.90
43671;DHT22;29267;50.906;7.248;2024-02-21T06:50:38;7.70;99.90
43671;DHT22;29267;50.906;7.248;2024-02-21T06:53:04;7.70;99.90
43671;DHT22;29267;50.906;7.248;2024-02-21T06:55:29;7.70;99.90
43671;DHT22;29267;50.906;7.248;2024-02-21T06:57:55;7.70;99.90
43671;DHT22;29267;50.906;7.248;2024-02-21T07:00:20;7.70;99.90
43671;DHT22;29267;50.906;7.248;2024-02-21T07:02:46;7.80;99.90
43671;DHT22;29267;50.906;7.248;2024-02-21T07:05:13;7.80;99.90
43671;DHT22;29267;50.906;7.248;2024-02-21T07:07:38;7.80;99.90
43671;DHT22;29267;50.906;7.248;2024-02-21T07:10:06;7.90;99.90
43671;DHT22;29267;50.906;7.248;2024-02-21T07:12:31;7.90;99.90
43671;DHT22;29267;50.906;7.248;2024-02-21T07:14:57;8.00;99.90
43671;DHT22;29267;50.906;7.248;2024-02-21T07:17:23;8.00;99.90
43671;DHT22;29267;50.906;7.248;2024-02-21T07:19:48;8.10;99.90
43671;DHT22;29267;50.906;7.248;2024-02-21T07:22:14;8.20;99.90
43671;DHT22;29267;50.906;7.248;2024-02-21T07:24:39;8.20;99.90
43671;DHT22;29267;50.906;7.248;2024-02-21T07:27:05;8.20;99.90
43671;DHT22;29267;50.906;7.248;2024-02-21T07:29:31;8.30;99.90
43671;DHT22;29267;50.906;7.248;2024-02-21T07:31:56;8.40;99.90
43671;DHT22;29267;50.906;7.248;2024-02-21T07:34:22;8.30;99.90
43671;DHT22;29267;50.906;7.248;2024-02-21T07:36:47;8.30;99.90
43671;DHT22;29267;50.906;7.248;2024-02-21T07:39:13;8.30;99.90
43671;DHT22;29267;50.906;7.248;2024-02-21T07:41:38;8.20;99.90
43671;DHT22;29267;50.906;7.248;2024-02-21T07:44:05;8.20;99.90
43671;DHT22;29267;50.906;7.248;2024-02-21T07:46:31;8.20;99.90
43671;DHT22;29267;50.906;7.248;2024-02-21T07:48:56;8.20;99.90
43671;DHT22;29267;50.906;7.248;2024-02-21T07:51:22;8.20;99.90
43671;DHT22;29267;50.906;7.248;2024-02-21T07:53:47;8.10;99.90
43671;DHT22;29267;50.906;7.248;2024-02-21T07:56:15;8.10;99.90
43671;DHT22;29267;50.906;7.248;2024-02-21T07:58:41;8.20;99.90
43671;DHT22;29267;50.906;7.248;2024-02-21T08:01:07;8.20;99.90
43671;DHT22;29267;50.906;7.248;2024-02-21T08:03:33;8.20;99.90
43671;DHT22;29267;50.906;7.248;2024-02-21T08:05:59;8.20;99.90
43671;DHT22;29267;50.906;7.248;2024-02-21T08:08:24;8.20;99.90
43671;DHT22;29267;50.906;7.248;2024-02-21T08:10:50;8.20;99.90
43671;DHT22;29267;50.906;7.248;2024-02-21T08:13:16;8.10;99.90
43671;DHT22;29267;50.906;7.248;2024-02-21T08:15:41;8.20;99.90
43671;DHT22;29267;50.906;7.248;2024-02-21T08:18:08;8.20;99.90
43671;DHT22;29267;50.906;7.248;2024-02-21T08:20:33;8.30;99.90
43671;DHT22;29267;50.906;7.248;2024-02-21T08:22:59;8.20;99.90
43671;DHT22;29267;50.906;7.248;2024-02-21T08:25:25;8.30;99.90
43671;DHT22;29267;50.906;7.248;2024-02-21T08:27:51;8.40;99.90
43671;DHT22;29267;50.906;7.248;2024-02-21T08:30:19;8.40;99.90
43671;DHT22;29267;50.906;7.248;2024-02-21T08:32:45;8.50;99.90
43671;DHT22;29267;50.906;7.248;2024-02-21T08:35:10;8.50;99.90
43671;DHT22;29267;50.906;7.248;2024-02-21T08:37:37;8.40;99.90
43671;DHT22;29267;50.906;7.248;2024-02-21T08:40:03;8.50;99.90
43671;DHT22;29267;50.906;7.248;2024-02-21T08:42:38;8.50;99.90
43671;DHT22;29267;50.906;7.248;2024-02-21T08:45:04;8.50;99.90
43671;DHT22;29267;50.906;7.248;2024-02-21T08:47:30;8.60;99.90
43671;DHT22;29267;50.906;7.248;2024-02-21T08:49:56;8.80;99.90
43671;DHT22;29267;50.906;7.248;2024-02-21T08:52:21;8.90;99.90
43671;DHT22;29267;50.906;7.248;2024-02-21T08:54:47;8.90;99.90
43671;DHT22;29267;50.906;7.248;2024-02-21T08:57:12;9.00;99.90
43671;DHT22;29267;50.906;7.248;2024-02-21T08:59:39;9.00;99.90
43671;DHT22;29267;50.906;7.248;2024-02-21T09:02:05;9.00;99.90
43671;DHT22;29267;50.906;7.248;2024-02-21T09:04:32;9.00;99.90
43671;DHT22;29267;50.906;7.248;2024-02-21T09:06:58;9.00;99.90
43671;DHT22;29267;50.906;7.248;2024-02-21T09:09:24;9.10;99.90
43671;DHT22;29267;50.906;7.248;2024-02-21T09:11:49;9.30;99.90
43671;DHT22;29267;50.906;7.248;2024-02-21T09:14:15;9.40;99.90
43671;DHT22;29267;50.906;7.248;2024-02-21T09:16:41;9.50;99.90
43671;DHT22;29267;50.906;7.248;2024-02-21T09:19:06;9.50;99.90
43671;DHT22;29267;50.906;7.248;2024-02-21T09:21:36;9.70;99.90
43671;DHT22;29267;50.906;7.248;2024-02-21T09:24:01;9.90;99.90
43671;DHT22;29267;50.906;7.248;2024-02-21T09:26:28;10.10;99.90
43671;DHT22;29267;50.906;7.248;2024-02-21T09:28:53;10.50;99.90
43671;DHT22;29267;50.906;7.248;2024-02-21T09:31:19;10.40;99.90
43671;DHT22;29267;50.906;7.248;2024-02-21T09:33:45;10.40;99.90
43671;DHT22;29267;50.906;7.248;2024-02-21T09:36:10;10.50;99.90
43671;DHT22;29267;50.906;7.248;2024-02-21T09:38:36;10.70;99.90
43671;DHT22;29267;50.906;7.248;2024-02-21T09:43:45;11.20;99.90
43671;DHT22;29267;50.906;7.248;2024-02-21T09:46:18;11.00;99.90
43671;DHT22;29267;50.906;7.248;2024-02-21T09:51:50;10.90;99.90
43671;DHT22;29267;50.906;7.248;2024-02-21T09:54:16;10.70;99.90
43671;DHT22;29267;50.906;7.248;2024-02-21T09:56:46;10.90;99.90
43671;DHT22;29267;50.906;7.248;2024-02-21T09:59:13;11.20;99.90
43671;DHT22;29267;50.906;7.248;2024-02-21T10:01:39;11.10;99.90
43671;DHT22;29267;50.906;7.248;2024-02-21T10:04:04;11.20;99.90
43671;DHT22;29267;50.906;7.248;2024-02-21T10:06:30;11.10;99.90
43671;DHT22;29267;50.906;7.248;2024-02-21T10:08:55;11.00;99.90
43671;DHT22;29267;50.906;7.248;2024-02-21T10:11:24;11.10;99.90
43671;DHT22;29267;50.906;7.248;2024-02-21T10:13:50;11.10;99.90
43671;DHT22;29267;50.906;7.248;2024-02-21T10:16:16;11.30;99.90
43671;DHT22;29267;50.906;7.248;2024-02-21T10:18:42;11.50;99.90
43671;DHT22;29267;50.906;7.248;2024-02-21T10:21:08;11.80;99.90
43671;DHT22;29267;50.906;7.248;2024-02-21T10:23:50;11.70;99.90
43671;DHT22;29267;50.906;7.248;2024-02-21T10:26:18;11.60;99.90
43671;DHT22;29267;50.906;7.248;2024-02-21T10:28:44;11.60;99.90
43671;DHT22;29267;50.906;7.248;2024-02-21T10:31:27;11.80;99.90
43671;DHT22;29267;50.906;7.248;2024-02-21T10:33:59;11.60;99.90
43671;DHT22;29267;50.906;7.248;2024-02-21T10:36:25;12.00;99.90
43671;DHT22;29267;50.906;7.248;2024-02-21T10:38:52;11.80;99.90
43671;DHT22;29267;50.906;7.248;2024-02-21T10:41:20;11.90;99.90
43671;DHT22;29267;50.906;7.248;2024-02-21T10:43:50;11.80;99.90
43671;DHT22;29267;50.906;7.248;2024-02-21T10:46:21;11.80;99.90
43671;DHT22;29267;50.906;7.248;2024-02-21T10:48:48;11.50;99.90
43671;DHT22;29267;50.906;7.248;2024-02-21T10:56:29;12.20;99.90
43671;DHT22;29267;50.906;7.248;2024-02-21T10:58:57;12.20;99.90
43671;DHT22;29267;50.906;7.248;2024-02-21T11:01:23;12.40;99.90
43671;DHT22;29267;50.906;7.248;2024-02-21T11:03:53;12.60;99.90
43671;DHT22;29267;50.906;7.248;2024-02-21T11:06:20;12.40;99.90
43671;DHT22;29267;50.906;7.248;2024-02-21T11:08:47;12.40;99.90
43671;DHT22;29267;50.906;7.248;2024-02-21T11:11:13;12.40;99.90
43671;DHT22;29267;50.906;7.248;2024-02-21T11:13:44;12.00;99.90
43671;DHT22;29267;50.906;7.248;2024-02-21T11:16:12;12.20;99.90
43671;DHT22;29267;50.906;7.248;2024-02-21T11:18:46;12.50;99.90
43671;DHT22;29267;50.906;7.248;2024-02-21T11:21:12;12.40;99.90
43671;DHT22;29267;50.906;7.248;2024-02-21T11:23:37;12.60;99.90
43671;DHT22;29267;50.906;7.248;2024-02-21T11:26:10;12.40;99.90
43671;DHT22;29267;50.906;7.248;2024-02-21T11:28:36;12.50;99.90
43671;DHT22;29267;50.906;7.248;2024-02-21T11:31:13;12.50;99.90
43671;DHT22;29267;50.906;7.248;2024-02-21T11:33:43;12.60;99.90
43671;DHT22;29267;50.906;7.248;2024-02-21T11:36:25;12.50;99.90
43671;DHT22;29267;50.906;7.248;2024-02-21T11:38:52;12.60;99.90
43671;DHT22;29267;50.906;7.248;2024-02-21T11:41:18;12.60;99.90
43671;DHT22;29267;50.906;7.248;2024-02-21T11:43:46;12.60;99.90
43671;DHT22;29267;50.906;7.248;2024-02-21T11:46:14;12.50;99.90
43671;DHT22;29267;50.906;7.248;2024-02-21T11:48:41;12.40;99.90
43671;DHT22;29267;50.906;7.248;2024-02-21T11:51:06;12.60;99.90
43671;DHT22;29267;50.906;7.248;2024-02-21T11:53:32;12.50;99.90
43671;DHT22;29267;50.906;7.248;2024-02-21T11:55:58;12.40;99.90
43671;DHT22;29267;50.906;7.248;2024-02-21T11:58:24;12.50;99.90
43671;DHT22;29267;50.906;7.248;2024-02-21T12:00:50;12.70;99.90
43671;DHT22;29267;50.906;7.248;2024-02-21T12:03:17;12.80;99.90
43671;DHT22;29267;50.906;7.248;2024-02-21T12:05:42;12.60;99.90
43671;DHT22;29267;50.906;7.248;2024-02-21T12:08:08;12.60;99.90
43671;DHT22;29267;50.906;7.248;2024-02-21T12:10:35;12.60;99.90
43671;DHT22;29267;50.906;7.248;2024-02-21T12:13:08;12.70;99.90
43671;DHT22;29267;50.906;7.248;2024-02-21T12:15:34;12.80;99.90
43671;DHT22;29267;50.906;7.248;2024-02-21T12:18:00;12.70;99.90
43671;DHT22;29267;50.906;7.248;2024-02-21T12:20:26;12.70;99.90
43671;DHT22;29267;50.906;7.248;2024-02-21T12:22:52;12.50;99.90
43671;DHT22;29267;50.906;7.248;2024-02-21T12:25:21;12.50;99.90
43671;DHT22;29267;50.906;7.248;2024-02-21T12:27:52;12.60;99.90
43671;DHT22;29267;50.906;7.248;2024-02-21T12:30:18;12.60;99.90
43671;DHT22;29267;50.906;7.248;2024-02-21T12:32:45;12.60;99.90
43671;DHT22;29267;50.906;7.248;2024-02-21T12:35:10;12.40;99.90
43671;DHT22;29267;50.906;7.248;2024-02-21T12:37:36;12.50;99.90
43671;DHT22;29267;50.906;7.248;2024-02-21T12:40:07;12.50;99.90
43671;DHT22;29267;50.906;7.248;2024-02-21T12:42:33;12.50;99.90
43671;DHT22;29267;50.906;7.248;2024-02-21T12:44:59;12.50;99.90
43671;DHT22;29267;50.906;7.248;2024-02-21T12:47:25;12.50;99.90
43671;DHT22;29267;50.906;7.248;2024-02-21T12:49:52;12.60;99.90
43671;DHT22;29267;50.906;7.248;2024-02-21T12:52:18;12.70;99.90
43671;DHT22;29267;50.906;7.248;2024-02-21T12:54:43;12.80;99.90
43671;DHT22;29267;50.906;7.248;2024-02-21T12:57:09;12.90;99.90
43671;DHT22;29267;50.906;7.248;2024-02-21T12:59:34;12.80;99.90
43671;DHT22;29267;50.906;7.248;2024-02-21T13:02:00;12.80;99.90
43671;DHT22;29267;50.906;7.248;2024-02-21T13:04:26;12.80;99.90
43671;DHT22;29267;50.906;7.248;2024-02-21T13:06:51;12.80;99.90
43671;DHT22;29267;50.906;7.248;2024-02-21T13:09:17;12.80;99.90
43671;DHT22;29267;50.906;7.248;2024-02-21T13:11:43;12.70;99.90
43671;DHT22;29267;50.906;7.248;2024-02-21T13:14:11;12.70;99.90
43671;DHT22;29267;50.906;7.248;2024-02-21T13:16:37;12.70;99.90
43671;DHT22;29267;50.906;7.248;2024-02-21T13:19:08;12.70;99.90
43671;DHT22;29267;50.906;7.248;2024-02-21T13:21:36;12.70;99.90
43671;DHT22;29267;50.906;7.248;2024-02-21T13:24:02;12.70;99.90
43671;DHT22;29267;50.906;7.248;2024-02-21T13:26:28;12.70;99.90
43671;DHT22;29267;50.906;7.248;2024-02-21T13:28:54;12.60;99.90
43671;DHT22;29267;50.906;7.248;2024-02-21T13:31:20;12.60;99.90
43671;DHT22;29267;50.906;7.248;2024-02-21T13:33:45;12.60;99.90
43671;DHT22;29267;50.906;7.248;2024-02-21T13:36:11;12.50;99.90
43671;DHT22;29267;50.906;7.248;2024-02-21T13:38:37;12.30;99.90
43671;DHT22;29267;50.906;7.248;2024-02-21T13:41:05;12.30;99.90
43671;DHT22;29267;50.906;7.248;2024-02-21T13:43:30;12.20;99.90
43671;DHT22;29267;50.906;7.248;2024-02-21T13:46:00;12.20;99.90
43671;DHT22;29267;50.906;7.248;2024-02-21T13:48:32;12.20;99.90
43671;DHT22;29267;50.906;7.248;2024-02-21T13:50:59;12.00;99.90
43671;DHT22;29267;50.906;7.248;2024-02-21T13:53:24;11.90;99.90
43671;DHT22;29267;50.906;7.248;2024-02-21T13:55:50;11.90;99.90
43671;DHT22;29267;50.906;7.248;2024-02-21T13:58:16;11.90;99.90
43671;DHT22;29267;50.906;7.248;2024-02-21T14:00:42;12.00;99.90
43671;DHT22;29267;50.906;7.248;2024-02-21T14:03:08;11.90;99.90
43671;DHT22;29267;50.906;7.248;2024-02-21T14:05:35;11.90;99.90
43671;DHT22;29267;50.906;7.248;2024-02-21T14:08:00;11.90;99.90
43671;DHT22;29267;50.906;7.248;2024-02-21T14:10:26;11.90;99.90
43671;DHT22;29267;50.906;7.248;2024-02-21T14:12:51;11.90;99.90
43671;DHT22;29267;50.906;7.248;2024-02-21T14:15:17;11.90;99.90
43671;DHT22;29267;50.906;7.248;2024-02-21T14:17:43;11.80;99.90
43671;DHT22;29267;50.906;7.248;2024-02-21T14:20:09;11.70;99.90
43671;DHT22;29267;50.906;7.248;2024-02-21T14:22:35;11.70;99.90
43671;DHT22;29267;50.906;7.248;2024-02-21T14:25:03;11.80;99.90
43671;DHT22;29267;50.906;7.248;2024-02-21T14:27:30;11.80;99.90
43671;DHT22;29267;50.906;7.248;2024-02-21T14:29:56;11.80;99.90
43671;DHT22;29267;50.906;7.248;2024-02-21T14:32:22;11.80;99.90
43671;DHT22;29267;50.906;7.248;2024-02-21T14:34:47;11.80;99.90
43671;DHT22;29267;50.906;7.248;2024-02-21T14:37:14;11.80;99.90
43671;DHT22;29267;50.906;7.248;2024-02-21T14:39:39;11.80;99.90
43671;DHT22;29267;50.906;7.248;2024-02-21T14:42:05;11.70;99.90
43671;DHT22;29267;50.906;7.248;2024-02-21T14:44:31;11.80;99.90
43671;DHT22;29267;50.906;7.248;2024-02-21T14:46:56;11.80;99.90
43671;DHT22;29267;50.906;7.248;2024-02-21T14:49:22;11.80;99.90
43671;DHT22;29267;50.906;7.248;2024-02-21T14:51:47;11.80;99.90
43671;DHT22;29267;50.906;7.248;2024-02-21T14:54:13;11.70;99.90
43671;DHT22;29267;50.906;7.248;2024-02-21T14:56:39;11.70;99.90
43671;DHT22;29267;50.906;7.248;2024-02-21T14:59:05;11.60;99.90
43671;DHT22;29267;50.906;7.248;2024-02-21T15:01:36;11.60;99.90
43671;DHT22;29267;50.906;7.248;2024-02-21T15:04:03;11.60;99.90
43671;DHT22;29267;50.906;7.248;2024-02-21T15:06:29;11.60;99.90
43671;DHT22;29267;50.906;7.248;2024-02-21T15:08:57;11.50;99.90
43671;DHT22;29267;50.906;7.248;2024-02-21T15:11:22;11.40;99.90
43671;DHT22;29267;50.906;7.248;2024-02-21T15:13:49;11.30;99.90
43671;DHT22;29267;50.906;7.248;2024-02-21T15:16:14;11.20;99.90
43671;DHT22;29267;50.906;7.248;2024-02-21T15:18:41;11.30;99.90
43671;DHT22;29267;50.906;7.248;2024-02-21T15:21:06;11.30;99.90
43671;DHT22;29267;50.906;7.248;2024-02-21T15:23:32;11.30;99.90
43671;DHT22;29267;50.906;7.248;2024-02-21T15:25:58;11.40;99.90
43671;DHT22;29267;50.906;7.248;2024-02-21T15:28:25;11.30;99.90
43671;DHT22;29267;50.906;7.248;2024-02-21T15:30:50;11.20;99.90
43671;DHT22;29267;50.906;7.248;2024-02-21T15:33:16;11.20;99.90
43671;DHT22;29267;50.906;7.248;2024-02-21T15:35:41;11.20;99.90
43671;DHT22;29267;50.906;7.248;2024-02-21T15:38:07;11.10;99.90
43671;DHT22;29267;50.906;7.248;2024-02-21T15:40:32;11.00;99.90
43671;DHT22;29267;50.906;7.248;2024-02-21T15:43:01;11.00;99.90
43671;DHT22;29267;50.906;7.248;2024-02-21T15:45:28;10.90;99.90
43671;DHT22;29267;50.906;7.248;2024-02-21T15:47:53;10.90;99.90